sensor_id;sensor_type;location;lat;lon;timestamp;P1;durP1;ratioP1;P2;durP2;ratioP2
63945;SDS011;50122;56.330;43.838;2023-02-12T14:01:08;16.30;;;10.25;;
63945;SDS011;50122;56.330;43.838;2023-02-12T14:03:37;21.23;;;10.10;;
63945;SDS011;50122;56.330;43.838;2023-02-12T14:08:52;15.95;;;8.57;;
63945;SDS011;50122;56.330;43.838;2023-02-12T14:11:33;20.92;;;10.82;;
63945;SDS011;50122;56.330;43.838;2023-02-12T14:14:13;20.48;;;11.60;;
63945;SDS011;50122;56.330;43.838;2023-02-12T14:16:52;23.45;;;12.93;;
63945;SDS011;50122;56.330;43.838;2023-02-12T14:22:13;23.80;;;12.63;;
63945;SDS011;50122;56.330;43.838;2023-02-12T14:25:01;27.33;;;13.63;;
63945;SDS011;50122;56.330;43.838;2023-02-12T14:41:52;25.83;;;13.38;;
63945;SDS011;50122;56.330;43.838;2023-02-12T14:47:02;19.85;;;11.52;;
63945;SDS011;50122;56.330;43.838;2023-02-12T14:49:46;26.35;;;14.27;;
63945;SDS011;50122;56.330;43.838;2023-02-12T14:52:18;28.98;;;15.43;;
63945;SDS011;50122;56.330;43.838;2023-02-12T14:54:51;27.98;;;15.50;;
63945;SDS011;50122;56.330;43.838;2023-02-12T15:00:05;30.23;;;16.00;;
63945;SDS011;50122;56.330;43.838;2023-02-12T15:08:31;24.65;;;12.82;;
63945;SDS011;50122;56.330;43.838;2023-02-12T15:11:13;27.33;;;14.60;;
63945;SDS011;50122;56.330;43.838;2023-02-12T15:24:47;26.35;;;15.27;;
63945;SDS011;50122;56.330;43.838;2023-02-12T15:27:14;30.00;;;15.18;;
63945;SDS011;50122;56.330;43.838;2023-02-12T15:29:46;24.88;;;13.40;;
63945;SDS011;50122;56.330;43.838;2023-02-12T15:32:18;28.60;;;15.40;;
63945;SDS011;50122;56.330;43.838;2023-02-12T15:34:50;26.92;;;14.05;;
63945;SDS011;50122;56.330;43.838;2023-02-12T15:37:27;23.73;;;14.02;;
63945;SDS011;50122;56.330;43.838;2023-02-12T15:39:57;25.88;;;13.77;;
63945;SDS011;50122;56.330;43.838;2023-02-12T15:42:31;25.95;;;13.88;;
63945;SDS011;50122;56.330;43.838;2023-02-12T15:45:07;24.45;;;13.77;;
63945;SDS011;50122;56.330;43.838;2023-02-12T15:47:46;30.45;;;14.10;;
63945;SDS011;50122;56.330;43.838;2023-02-12T15:50:30;19.45;;;11.15;;
63945;SDS011;50122;56.330;43.838;2023-02-12T15:52:58;24.08;;;11.73;;
63945;SDS011;50122;56.330;43.838;2023-02-12T15:55:26;24.13;;;11.80;;
63945;SDS011;50122;56.330;43.838;2023-02-12T15:57:57;21.38;;;12.20;;
63945;SDS011;50122;56.330;43.838;2023-02-12T16:00:29;15.32;;;8.82;;
63945;SDS011;50122;56.330;43.838;2023-02-12T16:03:04;22.92;;;11.18;;
63945;SDS011;50122;56.330;43.838;2023-02-12T16:05:32;21.75;;;12.10;;
63945;SDS011;50122;56.330;43.838;2023-02-12T16:08:00;23.23;;;14.00;;
63945;SDS011;50122;56.330;43.838;2023-02-12T16:10:27;20.25;;;11.85;;
63945;SDS011;50122;56.330;43.838;2023-02-12T16:12:54;16.08;;;9.85;;
63945;SDS011;50122;56.330;43.838;2023-02-12T16:15:30;21.77;;;11.30;;
63945;SDS011;50122;56.330;43.838;2023-02-12T16:17:59;23.50;;;12.30;;
63945;SDS011;50122;56.330;43.838;2023-02-12T16:20:30;18.77;;;12.38;;
63945;SDS011;50122;56.330;43.838;2023-02-12T16:22:57;18.75;;;10.20;;
63945;SDS011;50122;56.330;43.838;2023-02-12T16:25:28;21.27;;;12.25;;
63945;SDS011;50122;56.330;43.838;2023-02-12T16:28:02;22.58;;;12.13;;
63945;SDS011;50122;56.330;43.838;2023-02-12T16:30:38;23.83;;;12.32;;
63945;SDS011;50122;56.330;43.838;2023-02-12T16:36:03;19.15;;;11.55;;
63945;SDS011;50122;56.330;43.838;2023-02-12T16:46:27;19.98;;;11.35;;
63945;SDS011;50122;56.330;43.838;2023-02-12T16:48:56;19.63;;;11.65;;
63945;SDS011;50122;56.330;43.838;2023-02-12T16:53:58;21.48;;;12.00;;
63945;SDS011;50122;56.330;43.838;2023-02-12T16:56:33;21.10;;;11.02;;
63945;SDS011;50122;56.330;43.838;2023-02-12T16:59:27;20.42;;;11.57;;
63945;SDS011;50122;56.330;43.838;2023-02-12T17:04:25;22.05;;;11.50;;
63945;SDS011;50122;56.330;43.838;2023-02-12T17:06:55;20.77;;;12.07;;
63945;SDS011;50122;56.330;43.838;2023-02-12T17:09:23;21.90;;;11.48;;
63945;SDS011;50122;56.330;43.838;2023-02-12T17:11:49;20.20;;;11.48;;
63945;SDS011;50122;56.330;43.838;2023-02-12T17:14:17;19.15;;;11.55;;
63945;SDS011;50122;56.330;43.838;2023-02-12T17:16:46;20.00;;;11.85;;
63945;SDS011;50122;56.330;43.838;2023-02-12T17:19:12;21.48;;;11.40;;
63945;SDS011;50122;56.330;43.838;2023-02-12T17:21:41;21.15;;;12.40;;
63945;SDS011;50122;56.330;43.838;2023-02-12T17:24:19;20.42;;;12.45;;
63945;SDS011;50122;56.330;43.838;2023-02-12T17:26:49;21.83;;;12.45;;
63945;SDS011;50122;56.330;43.838;2023-02-12T17:29:21;22.33;;;12.25;;
63945;SDS011;50122;56.330;43.838;2023-02-12T17:31:49;21.75;;;12.75;;
63945;SDS011;50122;56.330;43.838;2023-02-12T17:34:19;24.83;;;12.57;;
63945;SDS011;50122;56.330;43.838;2023-02-12T17:36:47;21.38;;;11.38;;
63945;SDS011;50122;56.330;43.838;2023-02-12T17:39:15;20.38;;;11.02;;
63945;SDS011;50122;56.330;43.838;2023-02-12T17:41:43;18.88;;;10.82;;
63945;SDS011;50122;56.330;43.838;2023-02-12T17:44:10;20.42;;;11.30;;
63945;SDS011;50122;56.330;43.838;2023-02-12T17:46:39;21.05;;;11.45;;
63945;SDS011;50122;56.330;43.838;2023-02-12T17:49:06;18.15;;;8.30;;
63945;SDS011;50122;56.330;43.838;2023-02-12T17:51:32;18.27;;;10.32;;
63945;SDS011;50122;56.330;43.838;2023-02-12T17:53:59;16.98;;;9.00;;
63945;SDS011;50122;56.330;43.838;2023-02-12T17:56:26;20.35;;;10.52;;
63945;SDS011;50122;56.330;43.838;2023-02-12T17:58:54;22.00;;;11.00;;
63945;SDS011;50122;56.330;43.838;2023-02-12T18:01:21;21.85;;;11.55;;
63945;SDS011;50122;56.330;43.838;2023-02-12T18:03:49;18.98;;;10.30;;
63945;SDS011;50122;56.330;43.838;2023-02-12T18:06:26;20.95;;;11.52;;
63945;SDS011;50122;56.330;43.838;2023-02-12T18:08:56;18.55;;;10.85;;
63945;SDS011;50122;56.330;43.838;2023-02-12T18:11:23;14.40;;;8.60;;
63945;SDS011;50122;56.330;43.838;2023-02-12T18:13:51;18.83;;;9.88;;
63945;SDS011;50122;56.330;43.838;2023-02-12T18:16:19;17.80;;;10.20;;
63945;SDS011;50122;56.330;43.838;2023-02-12T18:18:46;16.17;;;10.00;;
63945;SDS011;50122;56.330;43.838;2023-02-12T18:21:14;16.58;;;9.30;;
63945;SDS011;50122;56.330;43.838;2023-02-12T18:23:41;20.55;;;11.70;;
63945;SDS011;50122;56.330;43.838;2023-02-12T18:26:10;20.40;;;10.50;;
63945;SDS011;50122;56.330;43.838;2023-02-12T18:28:38;18.52;;;10.30;;
63945;SDS011;50122;56.330;43.838;2023-02-12T18:31:05;11.27;;;7.15;;
63945;SDS011;50122;56.330;43.838;2023-02-12T18:33:32;21.25;;;11.10;;
63945;SDS011;50122;56.330;43.838;2023-02-12T18:36:04;19.88;;;10.25;;
63945;SDS011;50122;56.330;43.838;2023-02-12T18:38:35;17.33;;;10.55;;
63945;SDS011;50122;56.330;43.838;2023-02-12T18:41:04;20.67;;;11.50;;
63945;SDS011;50122;56.330;43.838;2023-02-12T18:43:40;18.92;;;10.68;;
63945;SDS011;50122;56.330;43.838;2023-02-12T18:46:19;20.40;;;11.73;;
63945;SDS011;50122;56.330;43.838;2023-02-12T18:48:47;22.42;;;12.85;;
63945;SDS011;50122;56.330;43.838;2023-02-12T18:51:16;22.10;;;11.75;;
63945;SDS011;50122;56.330;43.838;2023-02-12T18:53:46;25.10;;;12.60;;
63945;SDS011;50122;56.330;43.838;2023-02-12T18:56:15;20.05;;;11.82;;
63945;SDS011;50122;56.330;43.838;2023-02-12T18:58:45;19.45;;;11.63;;
63945;SDS011;50122;56.330;43.838;2023-02-12T19:01:16;18.88;;;10.40;;
63945;SDS011;50122;56.330;43.838;2023-02-12T19:03:51;22.23;;;12.38;;
63945;SDS011;50122;56.330;43.838;2023-02-12T19:06:26;27.35;;;12.25;;
63945;SDS011;50122;56.330;43.838;2023-02-12T19:09:00;20.23;;;11.90;;
63945;SDS011;50122;56.330;43.838;2023-02-12T19:11:29;20.27;;;11.45;;
63945;SDS011;50122;56.330;43.838;2023-02-12T19:13:56;21.30;;;12.75;;
63945;SDS011;50122;56.330;43.838;2023-02-12T19:16:23;22.58;;;11.82;;
63945;SDS011;50122;56.330;43.838;2023-02-12T19:18:50;23.77;;;11.80;;
63945;SDS011;50122;56.330;43.838;2023-02-12T19:21:23;19.15;;;10.20;;
63945;SDS011;50122;56.330;43.838;2023-02-12T19:23:55;21.55;;;12.38;;
63945;SDS011;50122;56.330;43.838;2023-02-12T19:26:24;22.55;;;12.05;;
63945;SDS011;50122;56.330;43.838;2023-02-12T19:28:51;23.65;;;12.35;;
63945;SDS011;50122;56.330;43.838;2023-02-12T19:31:19;24.13;;;13.40;;
63945;SDS011;50122;56.330;43.838;2023-02-12T19:33:48;22.25;;;12.75;;
63945;SDS011;50122;56.330;43.838;2023-02-12T19:36:19;21.27;;;11.77;;
63945;SDS011;50122;56.330;43.838;2023-02-12T19:38:46;22.95;;;12.82;;
63945;SDS011;50122;56.330;43.838;2023-02-12T19:41:17;25.08;;;11.88;;
63945;SDS011;50122;56.330;43.838;2023-02-12T19:43:53;24.48;;;12.25;;
63945;SDS011;50122;56.330;43.838;2023-02-12T19:46:24;20.13;;;11.30;;
63945;SDS011;50122;56.330;43.838;2023-02-12T19:49:00;21.55;;;11.02;;
63945;SDS011;50122;56.330;43.838;2023-02-12T19:51:28;19.27;;;11.10;;
63945;SDS011;50122;56.330;43.838;2023-02-12T19:54:02;19.55;;;10.10;;
63945;SDS011;50122;56.330;43.838;2023-02-12T19:56:38;16.10;;;8.25;;
63945;SDS011;50122;56.330;43.838;2023-02-12T19:59:06;15.98;;;9.27;;
63945;SDS011;50122;56.330;43.838;2023-02-12T20:01:34;16.25;;;9.32;;
63945;SDS011;50122;56.330;43.838;2023-02-12T20:04:01;15.70;;;8.60;;
63945;SDS011;50122;56.330;43.838;2023-02-12T20:06:35;15.02;;;9.25;;
63945;SDS011;50122;56.330;43.838;2023-02-12T20:09:04;16.30;;;9.35;;
63945;SDS011;50122;56.330;43.838;2023-02-12T20:11:33;14.60;;;8.13;;
63945;SDS011;50122;56.330;43.838;2023-02-12T20:14:07;13.75;;;7.30;;
63945;SDS011;50122;56.330;43.838;2023-02-12T20:16:36;12.25;;;6.70;;
63945;SDS011;50122;56.330;43.838;2023-02-12T20:19:22;8.57;;;4.82;;
63945;SDS011;50122;56.330;43.838;2023-02-12T20:21:51;10.68;;;6.03;;
63945;SDS011;50122;56.330;43.838;2023-02-12T20:24:23;10.57;;;5.57;;
63945;SDS011;50122;56.330;43.838;2023-02-12T20:26:51;12.65;;;4.90;;
63945;SDS011;50122;56.330;43.838;2023-02-12T20:29:18;13.75;;;6.82;;
63945;SDS011;50122;56.330;43.838;2023-02-12T20:31:45;10.15;;;6.10;;
63945;SDS011;50122;56.330;43.838;2023-02-12T20:34:15;11.05;;;5.93;;
63945;SDS011;50122;56.330;43.838;2023-02-12T20:36:44;9.93;;;5.68;;
63945;SDS011;50122;56.330;43.838;2023-02-12T20:39:14;12.05;;;6.10;;
63945;SDS011;50122;56.330;43.838;2023-02-12T20:41:42;11.63;;;6.00;;
63945;SDS011;50122;56.330;43.838;2023-02-12T20:44:13;12.65;;;6.25;;
63945;SDS011;50122;56.330;43.838;2023-02-12T20:46:46;13.25;;;6.05;;
63945;SDS011;50122;56.330;43.838;2023-02-12T20:49:15;10.70;;;5.97;;
63945;SDS011;50122;56.330;43.838;2023-02-12T20:51:43;8.70;;;4.72;;
63945;SDS011;50122;56.330;43.838;2023-02-12T20:54:11;9.48;;;4.20;;
63945;SDS011;50122;56.330;43.838;2023-02-12T20:56:41;12.88;;;5.43;;
63945;SDS011;50122;56.330;43.838;2023-02-12T20:59:09;9.10;;;4.10;;
63945;SDS011;50122;56.330;43.838;2023-02-12T21:01:37;10.00;;;3.90;;
63945;SDS011;50122;56.330;43.838;2023-02-12T21:04:06;11.30;;;5.32;;
63945;SDS011;50122;56.330;43.838;2023-02-12T21:06:35;9.85;;;5.05;;
63945;SDS011;50122;56.330;43.838;2023-02-12T21:09:02;9.27;;;4.85;;
63945;SDS011;50122;56.330;43.838;2023-02-12T21:11:28;10.80;;;5.75;;
63945;SDS011;50122;56.330;43.838;2023-02-12T21:13:57;10.77;;;5.45;;
63945;SDS011;50122;56.330;43.838;2023-02-12T21:16:44;10.80;;;5.70;;
63945;SDS011;50122;56.330;43.838;2023-02-12T21:19:11;7.20;;;3.97;;
63945;SDS011;50122;56.330;43.838;2023-02-12T21:21:39;7.88;;;4.95;;
63945;SDS011;50122;56.330;43.838;2023-02-12T21:24:08;11.68;;;4.93;;
63945;SDS011;50122;56.330;43.838;2023-02-12T21:26:38;10.82;;;5.05;;
63945;SDS011;50122;56.330;43.838;2023-02-12T21:29:05;8.02;;;4.18;;
63945;SDS011;50122;56.330;43.838;2023-02-12T21:31:33;8.15;;;4.28;;
63945;SDS011;50122;56.330;43.838;2023-02-12T21:34:04;4.82;;;3.53;;
63945;SDS011;50122;56.330;43.838;2023-02-12T21:36:33;8.82;;;4.55;;
63945;SDS011;50122;56.330;43.838;2023-02-12T21:39:03;8.70;;;4.35;;
63945;SDS011;50122;56.330;43.838;2023-02-12T21:41:32;7.82;;;4.18;;
63945;SDS011;50122;56.330;43.838;2023-02-12T21:44:01;8.02;;;3.92;;
63945;SDS011;50122;56.330;43.838;2023-02-12T21:46:34;8.48;;;3.83;;
63945;SDS011;50122;56.330;43.838;2023-02-12T21:49:01;8.48;;;3.80;;
63945;SDS011;50122;56.330;43.838;2023-02-12T21:51:47;8.77;;;3.95;;
63945;SDS011;50122;56.330;43.838;2023-02-12T21:54:14;7.90;;;3.38;;
63945;SDS011;50122;56.330;43.838;2023-02-12T21:56:45;5.35;;;2.47;;
63945;SDS011;50122;56.330;43.838;2023-02-12T21:59:12;7.20;;;3.55;;
63945;SDS011;50122;56.330;43.838;2023-02-12T22:01:41;5.95;;;3.15;;
63945;SDS011;50122;56.330;43.838;2023-02-12T22:04:12;7.53;;;3.75;;
63945;SDS011;50122;56.330;43.838;2023-02-12T22:06:43;6.85;;;3.40;;
63945;SDS011;50122;56.330;43.838;2023-02-12T22:09:13;8.18;;;3.40;;
63945;SDS011;50122;56.330;43.838;2023-02-12T22:11:41;6.15;;;2.83;;
63945;SDS011;50122;56.330;43.838;2023-02-12T22:14:10;5.85;;;2.97;;
63945;SDS011;50122;56.330;43.838;2023-02-12T22:16:39;5.05;;;2.70;;
63945;SDS011;50122;56.330;43.838;2023-02-12T22:19:06;5.97;;;3.20;;
63945;SDS011;50122;56.330;43.838;2023-02-12T22:21:34;6.10;;;2.70;;
63945;SDS011;50122;56.330;43.838;2023-02-12T22:24:03;5.63;;;2.80;;
63945;SDS011;50122;56.330;43.838;2023-02-12T22:26:32;2.70;;;2.00;;
63945;SDS011;50122;56.330;43.838;2023-02-12T22:29:00;6.57;;;2.25;;
63945;SDS011;50122;56.330;43.838;2023-02-12T22:31:31;5.55;;;2.25;;
63945;SDS011;50122;56.330;43.838;2023-02-12T22:34:02;5.10;;;2.03;;
63945;SDS011;50122;56.330;43.838;2023-02-12T22:36:30;3.17;;;1.90;;
63945;SDS011;50122;56.330;43.838;2023-02-12T22:39:01;5.63;;;2.10;;
63945;SDS011;50122;56.330;43.838;2023-02-12T22:41:29;3.75;;;2.17;;
63945;SDS011;50122;56.330;43.838;2023-02-12T22:44:00;3.33;;;1.65;;
63945;SDS011;50122;56.330;43.838;2023-02-12T22:46:31;4.15;;;1.90;;
63945;SDS011;50122;56.330;43.838;2023-02-12T22:48:58;4.38;;;2.08;;
63945;SDS011;50122;56.330;43.838;2023-02-12T22:51:27;2.75;;;1.48;;
63945;SDS011;50122;56.330;43.838;2023-02-12T22:53:57;7.75;;;2.25;;
63945;SDS011;50122;56.330;43.838;2023-02-12T22:56:24;4.82;;;2.40;;
63945;SDS011;50122;56.330;43.838;2023-02-12T22:59:00;7.07;;;2.28;;
63945;SDS011;50122;56.330;43.838;2023-02-12T23:01:28;2.72;;;1.98;;
63945;SDS011;50122;56.330;43.838;2023-02-12T23:03:56;3.47;;;1.90;;
63945;SDS011;50122;56.330;43.838;2023-02-12T23:06:24;3.78;;;2.13;;
63945;SDS011;50122;56.330;43.838;2023-02-12T23:08:54;4.55;;;2.22;;
63945;SDS011;50122;56.330;43.838;2023-02-12T23:11:24;3.63;;;1.90;;
63945;SDS011;50122;56.330;43.838;2023-02-12T23:13:53;5.22;;;2.05;;
63945;SDS011;50122;56.330;43.838;2023-02-12T23:16:21;5.38;;;1.83;;
63945;SDS011;50122;56.330;43.838;2023-02-12T23:18:55;4.78;;;2.10;;
63945;SDS011;50122;56.330;43.838;2023-02-12T23:21:24;7.45;;;2.42;;
63945;SDS011;50122;56.330;43.838;2023-02-12T23:23:51;1.50;;;1.40;;
63945;SDS011;50122;56.330;43.838;2023-02-12T23:26:18;4.68;;;2.40;;
63945;SDS011;50122;56.330;43.838;2023-02-12T23:28:46;3.67;;;2.10;;
63945;SDS011;50122;56.330;43.838;2023-02-12T23:31:12;4.68;;;2.00;;
63945;SDS011;50122;56.330;43.838;2023-02-12T23:33:39;4.18;;;2.58;;
63945;SDS011;50122;56.330;43.838;2023-02-12T23:36:06;4.15;;;2.50;;
63945;SDS011;50122;56.330;43.838;2023-02-12T23:38:33;6.32;;;2.28;;
63945;SDS011;50122;56.330;43.838;2023-02-12T23:41:00;4.05;;;2.08;;
63945;SDS011;50122;56.330;43.838;2023-02-12T23:43:26;3.67;;;2.45;;
63945;SDS011;50122;56.330;43.838;2023-02-12T23:45:53;4.45;;;2.10;;
63945;SDS011;50122;56.330;43.838;2023-02-12T23:48:20;4.32;;;2.25;;
63945;SDS011;50122;56.330;43.838;2023-02-12T23:50:47;5.03;;;2.40;;
63945;SDS011;50122;56.330;43.838;2023-02-12T23:53:15;3.97;;;2.45;;
63945;SDS011;50122;56.330;43.838;2023-02-12T23:55:43;7.50;;;2.33;;
63945;SDS011;50122;56.330;43.838;2023-02-12T23:58:10;5.15;;;2.55;;
